Time,TemperatureF,DewpointF,PressureIn,WindDirection,WindDirectionDegrees,WindSpeedMPH,WindSpeedGustMPH,Humidity,HourlyPrecipIn,Conditions,Clouds,dailyrainin,SoftwareType,DateUTC
2013-03-08 00:01:00,29.0,22.0,-100.00,South,175,6.0,7.0,76,-99.99,,,-99.99,,2013-03-08 07:01:00,
2013-03-08 00:11:00,29.0,23.0,-100.00,South,175,6.0,7.0,77,-99.99,,,-99.99,,2013-03-08 07:11:00,
2013-03-08 00:21:00,29.0,24.0,-100.00,SSE,160,5.0,6.0,81,-99.99,,,-99.99,,2013-03-08 07:21:00,
2013-03-08 00:31:00,30.0,26.0,-100.00,South,170,4.0,6.0,83,-99.99,,,-99.99,,2013-03-08 07:31:00,
2013-03-08 00:42:00,30.0,26.0,-100.00,SSE,160,5.0,6.0,86,-99.99,,,-99.99,,2013-03-08 07:42:00,
2013-03-08 00:51:00,31.0,26.0,-100.00,South,170,5.0,7.0,81,-99.99,,,-99.99,,2013-03-08 07:51:00,
2013-03-08 01:01:00,32.0,26.0,-100.00,South,185,3.0,7.0,77,-99.99,,,-99.99,,2013-03-08 08:01:00,
2013-03-08 01:11:00,35.0,26.0,-100.00,SW,215,7.0,9.0,69,-99.99,,,-99.99,,2013-03-08 08:11:00,
2013-03-08 01:21:00,35.0,25.0,-100.00,SSE,165,3.0,9.0,66,-99.99,,,-99.99,,2013-03-08 08:21:00,
2013-03-08 01:32:00,34.0,24.0,-100.00,SSE,150,4.0,5.0,66,-99.99,,,-99.99,,2013-03-08 08:32:00,
2013-03-08 01:41:00,34.0,24.0,-100.00,SE,135,4.0,7.0,65,-99.99,,,-99.99,,2013-03-08 08:41:00,
2013-03-08 01:52:00,33.0,23.0,-100.00,ESE,120,4.0,6.0,65,-99.99,,,-99.99,,2013-03-08 08:52:00,
2013-03-08 02:03:00,32.0,23.0,-100.00,SSE,155,3.0,6.0,67,-99.99,,,-99.99,,2013-03-08 09:03:00,
2013-03-08 02:11:00,32.0,23.0,-100.00,SE,145,3.0,4.0,68,-99.99,,,-99.99,,2013-03-08 09:11:00,
2013-03-08 02:21:00,33.0,23.0,-100.00,SSE,165,2.0,6.0,66,-99.99,,,-99.99,,2013-03-08 09:21:00,
2013-03-08 02:32:00,34.0,24.0,-100.00,SE,135,6.0,7.0,65,-99.99,,,-99.99,,2013-03-08 09:32:00,
2013-03-08 02:42:00,35.0,24.0,-100.00,SE,130,6.0,7.0,62,-99.99,,,-99.99,,2013-03-08 09:42:00,
2013-03-08 02:52:00,34.0,23.0,-100.00,SSE,150,5.0,6.0,63,-99.99,,,-99.99,,2013-03-08 09:52:00,
2013-03-08 03:01:00,33.0,23.0,-100.00,ESE,120,7.0,7.0,64,-99.99,,,-99.99,,2013-03-08 10:01:00,
2013-03-08 03:11:00,33.0,22.0,-100.00,ESE,120,8.0,8.0,64,-99.99,,,-99.99,,2013-03-08 10:11:00,
2013-03-08 03:21:00,33.0,22.0,-100.00,SSE,165,4.0,7.0,65,-99.99,,,-99.99,,2013-03-08 10:21:00,
2013-03-08 03:32:00,33.0,23.0,-100.00,ESE,120,7.0,9.0,66,-99.99,,,-99.99,,2013-03-08 10:32:00,
2013-03-08 03:51:00,31.0,22.0,-100.00,SE,140,8.0,9.0,70,-99.99,,,-99.99,,2013-03-08 10:51:00,
2013-03-08 04:01:00,31.0,24.0,-100.00,SE,135,8.0,11.0,74,-99.99,,,-99.99,,2013-03-08 11:01:00,
2013-03-08 04:11:00,30.0,24.0,-100.00,SE,140,7.0,11.0,75,-99.99,,,-99.99,,2013-03-08 11:11:00,
2013-03-08 04:21:00,29.0,23.0,-100.00,ESE,105,7.0,8.0,79,-99.99,,,-99.99,,2013-03-08 11:21:00,
2013-03-08 04:32:00,28.0,24.0,-100.00,SSE,160,6.0,8.0,84,-99.99,,,-99.99,,2013-03-08 11:32:00,
2013-03-08 04:52:00,26.0,24.0,-100.00,SSE,160,5.0,8.0,90,-99.99,,,-99.99,,2013-03-08 11:52:00,
2013-03-08 05:01:00,26.0,24.0,-100.00,South,175,7.0,8.0,92,-99.99,,,-99.99,,2013-03-08 12:01:00,
2013-03-08 05:11:00,26.0,24.0,-100.00,SSE,160,6.0,8.0,94,-99.99,,,-99.99,,2013-03-08 12:11:00,
2013-03-08 05:22:00,26.0,25.0,-100.00,South,170,6.0,6.0,95,-99.99,,,-99.99,,2013-03-08 12:22:00,
2013-03-08 05:32:00,26.0,25.0,-100.00,SSE,165,6.0,7.0,96,-99.99,,,-99.99,,2013-03-08 12:32:00,
2013-03-08 05:42:00,26.0,25.0,-100.00,SSE,165,5.0,7.0,97,-99.99,,,-99.99,,2013-03-08 12:42:00,
2013-03-08 05:52:00,26.0,26.0,-100.00,South,180,4.0,6.0,98,-99.99,,,-99.99,,2013-03-08 12:52:00,
2013-03-08 06:01:00,26.0,26.0,-100.00,South,170,4.0,6.0,98,-99.99,,,-99.99,,2013-03-08 13:01:00,
2013-03-08 06:11:00,27.0,26.0,-100.00,South,185,5.0,6.0,98,-99.99,,,-99.99,,2013-03-08 13:11:00,
2013-03-08 06:21:00,27.0,26.0,-100.00,South,175,6.0,7.0,96,-99.99,,,-99.99,,2013-03-08 13:21:00,
2013-03-08 06:32:00,27.0,26.0,-100.00,SSE,160,5.0,7.0,96,-99.99,,,-99.99,,2013-03-08 13:32:00,
2013-03-08 06:42:00,27.0,26.0,-100.00,South,175,6.0,7.0,96,-99.99,,,-99.99,,2013-03-08 13:42:00,
2013-03-08 06:52:00,27.0,26.0,-100.00,South,175,5.0,7.0,96,-99.99,,,-99.99,,2013-03-08 13:52:00,
2013-03-08 07:02:00,28.0,27.0,-100.00,South,190,6.0,6.0,95,-99.99,,,-99.99,,2013-03-08 14:02:00,
2013-03-08 07:11:00,28.0,27.0,-100.00,SSW,205,4.0,6.0,95,-99.99,,,-99.99,,2013-03-08 14:11:00,
2013-03-08 07:22:00,28.0,27.0,-100.00,SSW,210,5.0,7.0,93,-99.99,,,-99.99,,2013-03-08 14:22:00,
2013-03-08 07:32:00,29.0,27.0,-100.00,SW,220,6.0,6.0,89,-99.99,,,-99.99,,2013-03-08 14:32:00,
2013-03-08 07:42:00,35.0,23.0,-100.00,SSW,205,7.0,10.0,61,-99.99,,,-99.99,,2013-03-08 14:42:00,
2013-03-08 07:52:00,37.0,21.0,-100.00,SW,215,10.0,12.0,50,-99.99,,,-99.99,,2013-03-08 14:52:00,
2013-03-08 08:02:00,40.0,19.0,-100.00,SW,230,9.0,12.0,42,-99.99,,,-99.99,,2013-03-08 15:02:00,
2013-03-08 08:11:00,40.0,17.0,-100.00,SW,230,7.0,12.0,40,-99.99,,,-99.99,,2013-03-08 15:11:00,
2013-03-08 08:22:00,40.0,17.0,-100.00,SW,220,5.0,8.0,39,-99.99,,,-99.99,,2013-03-08 15:22:00,
2013-03-08 08:32:00,37.0,17.0,-100.00,South,185,1.0,6.0,43,-99.99,,,-99.99,,2013-03-08 15:32:00,
2013-03-08 08:42:00,38.0,18.0,-100.00,SW,235,7.0,9.0,43,-99.99,,,-99.99,,2013-03-08 15:42:00,
2013-03-08 08:52:00,40.0,17.0,-100.00,SW,235,7.0,11.0,39,-99.99,,,-99.99,,2013-03-08 15:52:00,
2013-03-08 09:01:00,39.0,17.0,-100.00,WSW,240,8.0,11.0,40,-99.99,,,-99.99,,2013-03-08 16:01:00,
2013-03-08 09:11:00,40.0,17.0,-100.00,WSW,250,10.0,14.0,38,-99.99,,,-99.99,,2013-03-08 16:11:00,
2013-03-08 09:21:00,41.0,17.0,-100.00,WSW,245,10.0,15.0,37,-99.99,,,-99.99,,2013-03-08 16:21:00,
2013-03-08 09:32:00,41.0,17.0,-100.00,WSW,240,11.0,14.0,36,-99.99,,,-99.99,,2013-03-08 16:32:00,
2013-03-08 09:42:00,40.0,18.0,-100.00,South,180,6.0,11.0,40,-99.99,,,-99.99,,2013-03-08 16:42:00,
2013-03-08 09:52:00,38.0,19.0,-100.00,South,170,4.0,6.0,45,-99.99,,,-99.99,,2013-03-08 16:52:00,
2013-03-08 10:02:00,38.0,20.0,-100.00,South,185,2.0,4.0,48,-99.99,,,-99.99,,2013-03-08 17:02:00,
2013-03-08 10:11:00,38.0,20.0,-100.00,SSE,165,4.0,6.0,48,-99.99,,,-99.99,,2013-03-08 17:11:00,
2013-03-08 10:21:00,37.0,20.0,-100.00,South,180,3.0,5.0,50,-99.99,,,-99.99,,2013-03-08 17:21:00,
2013-03-08 10:32:00,38.0,20.0,-100.00,SSE,150,2.0,4.0,48,-99.99,,,-99.99,,2013-03-08 17:32:00,
2013-03-08 10:41:00,38.0,20.0,-100.00,SSW,195,2.0,4.0,46,-99.99,,,-99.99,,2013-03-08 17:41:00,
2013-03-08 10:52:00,39.0,20.0,-100.00,SE,125,4.0,5.0,45,-99.99,,,-99.99,,2013-03-08 17:52:00,
2013-03-08 11:02:00,39.0,19.0,-100.00,SE,130,5.0,7.0,43,-99.99,,,-99.99,,2013-03-08 18:02:00,
2013-03-08 11:11:00,40.0,19.0,-100.00,ESE,110,5.0,6.0,42,-99.99,,,-99.99,,2013-03-08 18:11:00,
2013-03-08 11:21:00,40.0,19.0,-100.00,SE,125,6.0,6.0,41,-99.99,,,-99.99,,2013-03-08 18:21:00,
2013-03-08 11:32:00,40.0,19.0,-100.00,SE,125,5.0,6.0,41,-99.99,,,-99.99,,2013-03-08 18:32:00,
2013-03-08 11:42:00,40.0,19.0,-100.00,ENE,75,2.0,6.0,41,-99.99,,,-99.99,,2013-03-08 18:42:00,
2013-03-08 11:51:00,42.0,19.0,-100.00,SSE,150,2.0,3.0,40,-99.99,,,-99.99,,2013-03-08 18:51:00,
2013-03-08 12:01:00,42.0,19.0,-100.00,ESE,115,4.0,5.0,39,-99.99,,,-99.99,,2013-03-08 19:01:00,
2013-03-08 12:11:00,42.0,19.0,-100.00,SE,140,4.0,6.0,38,-99.99,,,-99.99,,2013-03-08 19:11:00,
2013-03-08 12:21:00,39.0,23.0,-100.00,SE,130,8.0,11.0,52,-99.99,,,-99.99,,2013-03-08 19:21:00,
2013-03-08 12:32:00,37.0,25.0,-100.00,SSE,150,6.0,10.0,60,-99.99,,,-99.99,,2013-03-08 19:32:00,
2013-03-08 12:41:00,37.0,26.0,-100.00,SE,140,5.0,8.0,64,-99.99,,,-99.99,,2013-03-08 19:41:00,
2013-03-08 12:51:00,37.0,27.0,-100.00,SE,130,4.0,7.0,66,-99.99,,,-99.99,,2013-03-08 19:51:00,
2013-03-08 13:01:00,38.0,27.0,-100.00,SE,130,7.0,9.0,65,-99.99,,,-99.99,,2013-03-08 20:01:00,
2013-03-08 13:11:00,37.0,27.0,-100.00,SE,140,7.0,10.0,67,-99.99,,,-99.99,,2013-03-08 20:11:00,
2013-03-08 13:21:00,37.0,27.0,-100.00,SE,125,6.0,8.0,68,-99.99,,,-99.99,,2013-03-08 20:21:00,
2013-03-08 13:32:00,37.0,27.0,-100.00,SE,125,6.0,8.0,68,-99.99,,,-99.99,,2013-03-08 20:32:00,
2013-03-08 13:42:00,38.0,28.0,-100.00,SSE,150,7.0,10.0,66,-99.99,,,-99.99,,2013-03-08 20:42:00,
2013-03-08 13:52:00,37.0,27.0,-100.00,ESE,110,7.0,10.0,65,-99.99,,,-99.99,,2013-03-08 20:52:00,
2013-03-08 14:02:00,37.0,26.0,-100.00,SE,145,6.0,11.0,63,-99.99,,,-99.99,,2013-03-08 21:02:00,
2013-03-08 14:11:00,37.0,26.0,-100.00,SE,125,7.0,11.0,63,-99.99,,,-99.99,,2013-03-08 21:11:00,
2013-03-08 14:21:00,37.0,26.0,-100.00,ESE,115,7.0,10.0,63,-99.99,,,-99.99,,2013-03-08 21:21:00,
2013-03-08 14:32:00,39.0,26.0,-100.00,SE,125,7.0,11.0,60,-99.99,,,-99.99,,2013-03-08 21:32:00,
2013-03-08 14:42:00,39.0,26.0,-100.00,ESE,105,12.0,14.0,59,-99.99,,,-99.99,,2013-03-08 21:42:00,
2013-03-08 14:52:00,39.0,27.0,-100.00,ESE,115,12.0,16.0,61,-99.99,,,-99.99,,2013-03-08 21:52:00,
2013-03-08 15:01:00,38.0,27.0,-100.00,ESE,120,13.0,16.0,63,-99.99,,,-99.99,,2013-03-08 22:01:00,
2013-03-08 15:11:00,37.0,27.0,-100.00,SE,130,12.0,16.0,65,-99.99,,,-99.99,,2013-03-08 22:11:00,
2013-03-08 15:22:00,37.0,27.0,-100.00,ESE,120,11.0,14.0,66,-99.99,,,-99.99,,2013-03-08 22:22:00,
2013-03-08 15:32:00,37.0,27.0,-100.00,SE,145,11.0,15.0,67,-99.99,,,-99.99,,2013-03-08 22:32:00,
2013-03-08 15:42:00,38.0,28.0,-100.00,SSE,150,11.0,15.0,66,-99.99,,,-99.99,,2013-03-08 22:42:00,
2013-03-08 15:52:00,39.0,28.0,-100.00,SSE,150,10.0,15.0,65,-99.99,,,-99.99,,2013-03-08 22:52:00,
2013-03-08 16:01:00,37.0,27.0,-100.00,ESE,115,12.0,14.0,65,-99.99,,,-99.99,,2013-03-08 23:01:00,
2013-03-08 16:11:00,37.0,27.0,-100.00,SSE,165,8.0,14.0,66,-99.99,,,-99.99,,2013-03-08 23:11:00,
2013-03-08 16:21:00,37.0,27.0,-100.00,SSE,160,7.0,12.0,66,-99.99,,,-99.99,,2013-03-08 23:21:00,
2013-03-08 16:32:00,36.0,26.0,-100.00,SSE,165,11.0,14.0,66,-99.99,,,-99.99,,2013-03-08 23:32:00,
2013-03-08 16:42:00,36.0,26.0,-100.00,SSE,160,7.0,12.0,66,-99.99,,,-99.99,,2013-03-08 23:42:00,
2013-03-08 16:52:00,36.0,26.0,-100.00,SE,145,5.0,10.0,66,-99.99,,,-99.99,,2013-03-08 23:52:00,
2013-03-08 17:02:00,36.0,26.0,-100.00,SE,130,6.0,7.0,65,-99.99,,,-99.99,,2013-03-09 00:02:00,
2013-03-08 17:11:00,36.0,26.0,-100.00,SE,135,3.0,7.0,65,-99.99,,,-99.99,,2013-03-09 00:11:00,
2013-03-08 17:22:00,36.0,26.0,-100.00,East,95,6.0,7.0,66,-99.99,,,-99.99,,2013-03-09 00:22:00,
2013-03-08 17:32:00,36.0,26.0,-100.00,East,100,6.0,8.0,67,-99.99,,,-99.99,,2013-03-09 00:32:00,
2013-03-08 17:42:00,35.0,26.0,-100.00,East,100,6.0,9.0,68,-99.99,,,-99.99,,2013-03-09 00:42:00,
2013-03-08 17:52:00,34.0,26.0,-100.00,East,100,7.0,9.0,70,-99.99,,,-99.99,,2013-03-09 00:52:00,
2013-03-08 18:01:00,34.0,26.0,-100.00,ESE,115,9.0,11.0,72,-99.99,,,-99.99,,2013-03-09 01:01:00,
2013-03-08 18:12:00,33.0,26.0,-100.00,SE,130,9.0,11.0,73,-99.99,,,-99.99,,2013-03-09 01:12:00,
2013-03-08 18:21:00,33.0,27.0,-100.00,SE,130,10.0,14.0,77,-99.99,,,-99.99,,2013-03-09 01:21:00,
2013-03-08 18:32:00,32.0,27.0,-100.00,SSE,150,6.0,11.0,81,-99.99,,,-99.99,,2013-03-09 01:32:00,
2013-03-08 18:41:00,31.0,27.0,-100.00,SE,125,9.0,12.0,83,-99.99,,,-99.99,,2013-03-09 01:41:00,
2013-03-08 18:51:00,30.0,28.0,-100.00,SE,125,11.0,12.0,90,-99.99,,,-99.99,,2013-03-09 01:51:00,
2013-03-08 19:01:00,30.0,28.0,-100.00,SE,140,9.0,14.0,93,-99.99,,,-99.99,,2013-03-09 02:01:00,
2013-03-08 19:11:00,30.0,29.0,-100.00,SE,140,10.0,14.0,95,-99.99,,,-99.99,,2013-03-09 02:11:00,
2013-03-08 19:21:00,29.0,29.0,-100.00,SE,135,12.0,16.0,97,-99.99,,,-99.99,,2013-03-09 02:21:00,
2013-03-08 19:31:00,29.0,29.0,-100.00,SE,135,14.0,16.0,98,-99.99,,,-99.99,,2013-03-09 02:31:00,
2013-03-08 19:41:00,29.0,29.0,-100.00,SE,125,14.0,17.0,99,-99.99,,,-99.99,,2013-03-09 02:41:00,
2013-03-08 19:51:00,29.0,29.0,-100.00,SE,130,12.0,15.0,99,-99.99,,,-99.99,,2013-03-09 02:51:00,
2013-03-08 20:01:00,29.0,29.0,-100.00,SE,145,9.0,14.0,99,-99.99,,,-99.99,,2013-03-09 03:01:00,
2013-03-08 20:21:00,29.0,29.0,-100.00,SE,140,11.0,14.0,99,-99.99,,,-99.99,,2013-03-09 03:21:00,
2013-03-08 20:31:00,28.0,28.0,-100.00,SE,140,8.0,14.0,99,-99.99,,,-99.99,,2013-03-09 03:31:00,
2013-03-08 20:41:00,28.0,28.0,-100.00,SE,145,9.0,15.0,99,-99.99,,,-99.99,,2013-03-09 03:41:00,
2013-03-08 20:52:00,28.0,28.0,-100.00,SSE,160,7.0,13.0,99,-99.99,,,-99.99,,2013-03-09 03:52:00,
2013-03-08 21:01:00,28.0,28.0,-100.00,SE,140,12.0,13.0,99,-99.99,,,-99.99,,2013-03-09 04:01:00,
2013-03-08 21:11:00,28.0,28.0,-100.00,SE,145,10.0,13.0,99,-99.99,,,-99.99,,2013-03-09 04:11:00,
2013-03-08 21:22:00,28.0,28.0,-100.00,SE,140,7.0,9.0,99,-99.99,,,-99.99,,2013-03-09 04:22:00,
2013-03-08 21:32:00,28.0,28.0,-100.00,SE,145,9.0,11.0,99,-99.99,,,-99.99,,2013-03-09 04:32:00,
2013-03-08 21:41:00,28.0,28.0,-100.00,SE,145,7.0,11.0,99,-99.99,,,-99.99,,2013-03-09 04:41:00,
2013-03-08 21:51:00,28.0,28.0,-100.00,SE,130,10.0,12.0,99,-99.99,,,-99.99,,2013-03-09 04:51:00,
2013-03-08 22:02:00,27.0,27.0,-100.00,SSE,160,6.0,10.0,99,-99.99,,,-99.99,,2013-03-09 05:02:00,
2013-03-08 22:11:00,27.0,27.0,-100.00,SE,135,6.0,11.0,99,-99.99,,,-99.99,,2013-03-09 05:11:00,
2013-03-08 22:21:00,27.0,27.0,-100.00,SSE,165,4.0,7.0,99,-99.99,,,-99.99,,2013-03-09 05:21:00,
2013-03-08 22:31:00,27.0,27.0,-100.00,SE,130,6.0,8.0,99,-99.99,,,-99.99,,2013-03-09 05:31:00,
2013-03-08 22:42:00,27.0,27.0,-100.00,SE,125,7.0,7.0,99,-99.99,,,-99.99,,2013-03-09 05:42:00,
2013-03-08 22:52:00,27.0,27.0,-100.00,SE,145,5.0,7.0,99,-99.99,,,-99.99,,2013-03-09 05:52:00,
2013-03-08 23:01:00,27.0,27.0,-100.00,SE,140,4.0,6.0,99,-99.99,,,-99.99,,2013-03-09 06:01:00,
2013-03-08 23:11:00,27.0,27.0,-100.00,SE,135,4.0,5.0,99,-99.99,,,-99.99,,2013-03-09 06:11:00,
2013-03-08 23:22:00,27.0,27.0,-100.00,SE,140,4.0,5.0,99,-99.99,,,-99.99,,2013-03-09 06:22:00,
2013-03-08 23:32:00,27.0,27.0,-100.00,SE,145,3.0,4.0,99,-99.99,,,-99.99,,2013-03-09 06:32:00,
2013-03-08 23:42:00,27.0,27.0,-100.00,SSW,205,3.0,4.0,99,-99.99,,,-99.99,,2013-03-09 06:42:00,
2013-03-08 23:51:00,27.0,27.0,-100.00,WSW,245,7.0,8.0,99,-99.99,,,-99.99,,2013-03-09 06:51:00,